Thunder radar more information blitzortung!


Löydät sääaseman tiedot myös:

European Weather Network

Finland Weather Exchange

Weather Underground

AWEKAS



Weather Underground säähistoriasivu

Päivittäin yhteenveto Heinäkuu 2, 2017 Yksiköt:  Englantilaiset    Metriset   Molemmat
« Edellinen Päivä
Seuraava Päivä »
Päivittäin Viikoittain Kuukausittain Vuosittain Mukautettu
  Korkea: Matala: Keskiarvo:
Lämpötila: TemperatureC °F 9.3 °F 16.8 °F
Kastepiste: DewpointC °F 7.8 °F 10.4 °F
Kosteus: Humidity % 47 % 67 %
Tuulen nopeus: WindSpeedKMH mph 0.0 mph 0.6 mph
Tuulenpuuska: WindSpeedGustKMH mph - -
Tuuli:- - SSE
Ilmanpaine: PressurehPa in 999.9 in -
Sade: 0.0 in    
Historical Graphs
 
 
Taulukkotiedot Heinäkuu 2, 2017
Aika Lämpötila Kastepiste Ilmanpaine Tuuli Tuulen nopeus Tuulenpuuska Kosteus Sademäärä (tunneittain)
TemperatureC °F DewpointC °F PressurehPa in Calm     Humidity % HourlyPrecipMM in
00:00 14.3 °F 10.1 °F 1003.3 in Calm     76 % 0.0 in
00:15 13.7 °F 9.8 °F 1003.3 in Calm     77 % 0.0 in
00:30 13.2 °F 9.4 °F 1003.3 in Calm     78 % 0.0 in
00:45 12.7 °F 9.2 °F 1003.3 in Calm     79 % 0.0 in
01:00 12.3 °F 9.1 °F 1003.3 in Calm     81 % 0.0 in
01:15 11.8 °F 8.9 °F 1003.3 in Calm     82 % 0.0 in
01:30 11.5 °F 8.7 °F 1003.3 in Calm     83 % 0.0 in
01:45 11.2 °F 8.6 °F 1003.3 in Calm     84 % 0.0 in
02:00 10.9 °F 8.5 °F 1003.3 in Calm     85 % 0.0 in
02:15 10.6 °F 8.4 °F 1003.3 in Calm     86 % 0.0 in
02:30 10.4 °F 8.3 °F 1003.3 in Calm     87 % 0.0 in
02:45 10.1 °F 8.2 °F 1003.3 in Calm     88 % 0.0 in
03:00 9.9 °F 8.0 °F 1003.3 in Calm     88 % 0.0 in
03:15 9.8 °F 8.1 °F 1003.3 in Calm     89 % 0.0 in
03:30 9.6 °F 7.9 °F 1003.3 in Calm     89 % 0.0 in
03:45 9.4 °F 7.8 °F 1003.3 in Calm     90 % 0.0 in
04:00 9.3 °F 7.9 °F 1003.3 in Calm     91 % 0.0 in
04:15 9.6 °F 8.4 °F 1003.3 in Calm     92 % 0.0 in
04:30 10.3 °F 8.6 °F 1003.3 in Calm     89 % 0.0 in
04:45 10.3 °F 8.4 °F 1003.3 in Calm     88 % 0.0 in
05:00 10.1 °F 8.3 °F 1003.3 in Calm     89 % 0.0 in
05:15 9.8 °F 8.2 °F 1003.3 in Calm     90 % 0.0 in
05:30 9.7 °F 8.3 °F 1003.3 in Calm     91 % 0.0 in
05:45 9.6 °F 8.2 °F 1003.3 in Calm     91 % 0.0 in
06:00 9.6 °F 8.4 °F 1003.3 in Calm     92 % 0.0 in
06:15 10.2 °F 9.1 °F 1003.3 in Calm     93 % 0.0 in
06:30 11.4 °F 10.0 °F 1003.3 in Calm     91 % 0.0 in
06:45 12.2 °F 10.2 °F 1003.3 in Calm     88 % 0.0 in
07:00 12.8 °F 10.4 °F 1003.3 in Calm   1.6 mph 85 % 0.0 in
07:15 13.3 °F 10.6 °F 1003.3 in Calm     84 % 0.0 in
07:30 13.7 °F 10.9 °F 1002.9 in Calm   1.6 mph 83 % 0.0 in
07:45 14.2 °F 11.2 °F 1002.9 in Calm     82 % 0.0 in
08:00 14.9 °F 11.5 °F 1002.9 in Calm   1.6 mph 80 % 0.0 in
08:15 15.7 °F 11.9 °F 1002.9 in Calm   8.0 mph 78 % 0.0 in
08:30 16.4 °F 11.9 °F 1002.9 in Calm   8.0 mph 75 % 0.0 in
08:45 17.3 °F 12.4 °F 1002.6 in Calm   3.2 mph 73 % 0.0 in
09:00 18.1 °F 12.3 °F 1002.6 in SSE 1.6 mph 9.7 mph 69 % 0.0 in
09:15 18.7 °F 12.2 °F 1002.6 in SE 1.6 mph 11.3 mph 66 % 0.0 in
09:30 19.2 °F 12.7 °F 1002.6 in ESE 1.6 mph 11.3 mph 66 % 0.0 in
09:45 19.4 °F 11.7 °F 1002.3 in SSE 3.2 mph 11.3 mph 61 % 0.0 in
10:00 20.0 °F 11.7 °F 1002.3 in South 1.6 mph 12.9 mph 59 % 0.0 in
10:15 20.1 °F 11.3 °F 1002.3 in SSE 3.2 mph 12.9 mph 57 % 0.0 in
10:30 20.2 °F 11.9 °F 1002.3 in SE 1.6 mph 14.5 mph 59 % 0.0 in
10:45 20.8 °F 11.7 °F 1002.3 in South 3.2 mph 17.7 mph 56 % 0.0 in
11:00 20.6 °F 11.5 °F 1002.3 in SSE 1.6 mph 11.3 mph 56 % 0.0 in
11:15 21.1 °F 10.8 °F 1002.3 in ESE 3.2 mph 12.9 mph 52 % 0.0 in
11:30 21.2 °F 12.1 °F 1002.3 in South 3.2 mph 12.9 mph 56 % 0.0 in
11:45 21.9 °F 11.6 °F 1001.9 in SSW 1.6 mph 11.3 mph 52 % 0.0 in
12:00 21.6 °F 12.1 °F 1001.9 in ESE 1.6 mph 11.3 mph 55 % 0.0 in
12:15 21.1 °F 10.9 °F 1001.9 in SE 3.2 mph 14.5 mph 52 % 0.0 in
12:30 21.1 °F 11.1 °F 1001.9 in SSE 3.2 mph 14.5 mph 53 % 0.0 in
12:45 21.1 °F 11.4 °F 1001.9 in SE 1.6 mph 9.7 mph 54 % 0.0 in
13:00 21.1 °F 10.0 °F 1001.6 in SSE 3.2 mph 14.5 mph 49 % 0.0 in
13:15 21.1 °F 11.1 °F 1001.9 in SSE 1.6 mph 11.3 mph 53 % 0.0 in
13:30 21.1 °F 10.8 °F 1001.6 in SE 1.6 mph 11.3 mph 52 % 0.0 in
13:45 21.8 °F 10.0 °F 1001.6 in SE 3.2 mph 14.5 mph 47 % 0.0 in
14:00 21.5 °F 11.2 °F 1001.6 in SSE 1.6 mph 14.5 mph 52 % 0.0 in
14:15 21.2 °F 10.6 °F 1001.6 in SE 1.6 mph 9.7 mph 51 % 0.0 in
14:30 21.2 °F 10.6 °F 1001.6 in SSE 3.2 mph 11.3 mph 51 % 0.0 in
14:45 21.4 °F 11.4 °F 1001.2 in SSE 1.6 mph 12.9 mph 53 % 0.0 in
15:00 21.3 °F 10.5 °F 1001.2 in SSE 1.6 mph 11.3 mph 50 % 0.0 in
15:15 21.4 °F 11.5 °F 1001.2 in ESE 1.6 mph 9.7 mph 53 % 0.0 in
15:30 21.5 °F 11.8 °F 1000.9 in SSW 1.6 mph 8.0 mph 54 % 0.0 in
15:45 21.4 °F 11.2 °F 1000.9 in Calm     52 % 0.0 in
16:00 21.8 °F 11.2 °F 1000.9 in Calm     51 % 0.0 in
16:15 21.8 °F 10.6 °F 1000.9 in Calm     49 % 0.0 in
16:30 21.6 °F 10.4 °F 1000.9 in Calm     49 % 0.0 in
16:45 21.8 °F 10.0 °F 1000.6 in Calm     47 % 0.0 in
17:00 21.4 °F 10.3 °F 1000.6 in Calm     49 % 0.0 in
17:15 21.6 °F 11.0 °F 1000.6 in Calm     51 % 0.0 in
17:30 21.6 °F 10.1 °F 1000.6 in Calm     48 % 0.0 in
17:45 21.6 °F 11.3 °F 1000.6 in Calm     52 % 0.0 in
18:00 21.9 °F 10.4 °F 1000.6 in Calm     48 % 0.0 in
18:15 21.5 °F 10.3 °F 1000.6 in Calm     49 % 0.0 in
18:30 21.2 °F 10.4 °F 1000.2 in Calm     50 % 0.0 in
18:45 21.2 °F 11.5 °F 1000.2 in Calm     54 % 0.0 in
19:00 21.4 °F 10.0 °F 999.9 in Calm     48 % 0.0 in
19:15 21.8 °F 10.3 °F 999.9 in Calm     48 % 0.0 in
20:00 21.2 °F 10.4 °F 999.9 in Calm     50 % 0.0 in
20:15 20.9 °F 10.1 °F 999.9 in Calm     50 % 0.0 in
20:30 20.8 °F 9.7 °F 999.9 in Calm     49 % 0.0 in
20:45 20.6 °F 9.8 °F 999.9 in Calm     50 % 0.0 in
21:00 20.2 °F 10.3 °F 999.9 in Calm     53 % 0.0 in
21:15 19.7 °F 11.9 °F 1000.2 in Calm     61 % 0.0 in
21:30 18.9 °F 12.2 °F 999.9 in Calm     65 % 0.0 in
21:45 18.3 °F 12.3 °F 1000.2 in Calm     68 % 0.0 in
22:00 18.0 °F 12.4 °F 1000.2 in Calm     70 % 0.0 in
22:15 17.8 °F 12.4 °F 1000.2 in Calm     71 % 0.0 in
22:30 17.4 °F 12.6 °F 1000.2 in Calm     73 % 0.0 in
22:45 16.9 °F 12.3 °F 1000.2 in Calm     74 % 0.0 in
23:00 16.5 °F 12.1 °F 1000.2 in Calm   4.8 mph 75 % 0.0 in
23:15 16.1 °F 12.0 °F 1000.2 in Calm     77 % 0.0 in
23:30 15.5 °F 12.1 °F 1000.2 in Calm     80 % 0.0 in
23:45 14.8 °F 11.6 °F 1000.2 in Calm     81 % 0.0 in
Esan sääasema
Terveisin Weather Underground - 2.75 mb

Alkuperäinen skripti  Jim McMurry - jmcmurry@mwt.net Sovitettu myös templatelle  Wim van der Kuil - Leuven-Template.eu

Laitteet joita käytämme:

Sääasema
Davis VP2

Sääasemaohjelma
Cumulus

Sääaseman tietokone
Asus EeePC

Palveluntarjoaja
Suncomet

Davis VP2

Cumulus

Asus EeePC

Suncomet